sensor_id;sensor_type;location;lat;lon;timestamp;P1;durP1;ratioP1;P2;durP2;ratioP2
10872;SDS011;34586;53.616;10.032;2023-01-26T00:00:50;70.30;;;34.93;;
10872;SDS011;34586;53.616;10.032;2023-01-26T00:03:16;72.20;;;36.40;;
10872;SDS011;34586;53.616;10.032;2023-01-26T00:05:42;66.63;;;35.50;;
10872;SDS011;34586;53.616;10.032;2023-01-26T00:08:08;65.73;;;34.93;;
10872;SDS011;34586;53.616;10.032;2023-01-26T00:10:38;64.23;;;34.63;;
10872;SDS011;34586;53.616;10.032;2023-01-26T00:13:05;68.80;;;36.20;;
10872;SDS011;34586;53.616;10.032;2023-01-26T00:15:32;68.83;;;36.93;;
10872;SDS011;34586;53.616;10.032;2023-01-26T00:17:59;73.27;;;36.33;;
10872;SDS011;34586;53.616;10.032;2023-01-26T00:20:25;77.33;;;37.87;;
10872;SDS011;34586;53.616;10.032;2023-01-26T00:22:51;70.47;;;36.33;;
10872;SDS011;34586;53.616;10.032;2023-01-26T00:25:17;68.03;;;35.43;;
10872;SDS011;34586;53.616;10.032;2023-01-26T00:27:43;69.70;;;36.87;;
10872;SDS011;34586;53.616;10.032;2023-01-26T00:30:08;73.97;;;38.53;;
10872;SDS011;34586;53.616;10.032;2023-01-26T00:32:34;68.97;;;36.73;;
10872;SDS011;34586;53.616;10.032;2023-01-26T00:35:01;70.63;;;37.77;;
10872;SDS011;34586;53.616;10.032;2023-01-26T00:37:27;65.03;;;34.33;;
10872;SDS011;34586;53.616;10.032;2023-01-26T00:39:52;65.77;;;35.13;;
10872;SDS011;34586;53.616;10.032;2023-01-26T00:42:18;64.93;;;34.10;;
10872;SDS011;34586;53.616;10.032;2023-01-26T00:44:44;64.30;;;33.13;;
10872;SDS011;34586;53.616;10.032;2023-01-26T00:47:10;67.13;;;34.20;;
10872;SDS011;34586;53.616;10.032;2023-01-26T00:49:37;61.03;;;32.00;;
10872;SDS011;34586;53.616;10.032;2023-01-26T00:52:03;63.97;;;33.07;;
10872;SDS011;34586;53.616;10.032;2023-01-26T00:54:29;64.13;;;34.13;;
10872;SDS011;34586;53.616;10.032;2023-01-26T00:56:55;62.90;;;33.83;;
10872;SDS011;34586;53.616;10.032;2023-01-26T00:59:20;58.77;;;30.73;;
10872;SDS011;34586;53.616;10.032;2023-01-26T01:01:46;63.27;;;33.83;;
10872;SDS011;34586;53.616;10.032;2023-01-26T01:04:12;57.03;;;31.87;;
10872;SDS011;34586;53.616;10.032;2023-01-26T01:06:38;56.97;;;30.80;;
10872;SDS011;34586;53.616;10.032;2023-01-26T01:09:04;58.53;;;32.00;;
10872;SDS011;34586;53.616;10.032;2023-01-26T01:11:29;55.77;;;31.47;;
10872;SDS011;34586;53.616;10.032;2023-01-26T01:13:55;56.13;;;31.57;;
10872;SDS011;34586;53.616;10.032;2023-01-26T01:16:21;55.07;;;31.10;;
10872;SDS011;34586;53.616;10.032;2023-01-26T01:18:46;59.27;;;31.70;;
10872;SDS011;34586;53.616;10.032;2023-01-26T01:21:13;58.97;;;31.70;;
10872;SDS011;34586;53.616;10.032;2023-01-26T01:23:40;57.57;;;32.60;;
10872;SDS011;34586;53.616;10.032;2023-01-26T01:26:06;58.73;;;32.63;;
10872;SDS011;34586;53.616;10.032;2023-01-26T01:28:33;56.60;;;31.57;;
10872;SDS011;34586;53.616;10.032;2023-01-26T01:31:02;53.30;;;31.30;;
10872;SDS011;34586;53.616;10.032;2023-01-26T01:33:29;50.97;;;30.03;;
10872;SDS011;34586;53.616;10.032;2023-01-26T01:35:55;52.73;;;30.10;;
10872;SDS011;34586;53.616;10.032;2023-01-26T01:38:25;51.63;;;29.17;;
10872;SDS011;34586;53.616;10.032;2023-01-26T01:40:51;52.70;;;29.63;;
10872;SDS011;34586;53.616;10.032;2023-01-26T01:43:19;60.37;;;32.20;;
10872;SDS011;34586;53.616;10.032;2023-01-26T01:45:45;53.53;;;30.53;;
10872;SDS011;34586;53.616;10.032;2023-01-26T01:48:14;60.83;;;33.37;;
10872;SDS011;34586;53.616;10.032;2023-01-26T01:50:44;63.07;;;32.37;;
10872;SDS011;34586;53.616;10.032;2023-01-26T01:53:11;55.27;;;30.70;;
10872;SDS011;34586;53.616;10.032;2023-01-26T01:55:42;56.97;;;30.77;;
10872;SDS011;34586;53.616;10.032;2023-01-26T01:58:08;57.60;;;31.57;;
10872;SDS011;34586;53.616;10.032;2023-01-26T02:00:34;54.03;;;31.03;;
10872;SDS011;34586;53.616;10.032;2023-01-26T02:03:00;60.03;;;31.70;;
10872;SDS011;34586;53.616;10.032;2023-01-26T02:05:42;54.03;;;30.90;;
10872;SDS011;34586;53.616;10.032;2023-01-26T02:08:15;56.97;;;30.43;;
10872;SDS011;34586;53.616;10.032;2023-01-26T02:10:44;50.77;;;30.20;;
10872;SDS011;34586;53.616;10.032;2023-01-26T02:13:12;52.47;;;29.60;;
10872;SDS011;34586;53.616;10.032;2023-01-26T02:15:40;53.37;;;30.30;;
10872;SDS011;34586;53.616;10.032;2023-01-26T02:18:06;50.70;;;30.30;;
10872;SDS011;34586;53.616;10.032;2023-01-26T02:20:44;52.00;;;29.30;;
10872;SDS011;34586;53.616;10.032;2023-01-26T02:26:06;53.93;;;30.07;;
10872;SDS011;34586;53.616;10.032;2023-01-26T02:28:35;52.43;;;30.07;;
10872;SDS011;34586;53.616;10.032;2023-01-26T02:31:01;56.00;;;30.93;;
10872;SDS011;34586;53.616;10.032;2023-01-26T02:33:29;53.17;;;30.63;;
10872;SDS011;34586;53.616;10.032;2023-01-26T02:35:56;53.00;;;31.27;;
10872;SDS011;34586;53.616;10.032;2023-01-26T02:38:22;52.73;;;28.33;;
10872;SDS011;34586;53.616;10.032;2023-01-26T02:40:53;49.80;;;29.33;;
10872;SDS011;34586;53.616;10.032;2023-01-26T02:43:24;53.60;;;29.37;;
10872;SDS011;34586;53.616;10.032;2023-01-26T02:45:51;49.87;;;29.07;;
10872;SDS011;34586;53.616;10.032;2023-01-26T02:48:18;47.50;;;27.47;;
10872;SDS011;34586;53.616;10.032;2023-01-26T02:51:03;48.87;;;27.00;;
10872;SDS011;34586;53.616;10.032;2023-01-26T02:53:28;49.13;;;28.47;;
10872;SDS011;34586;53.616;10.032;2023-01-26T02:55:54;49.60;;;27.53;;
10872;SDS011;34586;53.616;10.032;2023-01-26T02:58:20;49.97;;;27.60;;
10872;SDS011;34586;53.616;10.032;2023-01-26T03:00:46;49.70;;;28.53;;
10872;SDS011;34586;53.616;10.032;2023-01-26T03:03:16;46.33;;;26.80;;
10872;SDS011;34586;53.616;10.032;2023-01-26T03:05:44;44.57;;;25.53;;
10872;SDS011;34586;53.616;10.032;2023-01-26T03:08:10;47.47;;;26.53;;
10872;SDS011;34586;53.616;10.032;2023-01-26T03:10:36;43.53;;;25.20;;
10872;SDS011;34586;53.616;10.032;2023-01-26T03:13:02;39.87;;;24.30;;
10872;SDS011;34586;53.616;10.032;2023-01-26T03:15:28;43.00;;;25.87;;
10872;SDS011;34586;53.616;10.032;2023-01-26T03:18:17;46.50;;;26.53;;
10872;SDS011;34586;53.616;10.032;2023-01-26T03:21:03;46.37;;;25.83;;
10872;SDS011;34586;53.616;10.032;2023-01-26T03:23:49;49.33;;;27.43;;
10872;SDS011;34586;53.616;10.032;2023-01-26T03:26:33;46.73;;;25.33;;
10872;SDS011;34586;53.616;10.032;2023-01-26T03:29:18;46.30;;;25.70;;
10872;SDS011;34586;53.616;10.032;2023-01-26T03:31:44;45.53;;;24.63;;
10872;SDS011;34586;53.616;10.032;2023-01-26T03:34:10;45.67;;;26.93;;
10872;SDS011;34586;53.616;10.032;2023-01-26T03:36:36;42.53;;;24.43;;
10872;SDS011;34586;53.616;10.032;2023-01-26T03:39:02;42.90;;;24.97;;
10872;SDS011;34586;53.616;10.032;2023-01-26T03:41:28;48.13;;;27.20;;
10872;SDS011;34586;53.616;10.032;2023-01-26T03:44:12;41.07;;;24.73;;
10872;SDS011;34586;53.616;10.032;2023-01-26T03:46:56;46.33;;;25.90;;
10872;SDS011;34586;53.616;10.032;2023-01-26T03:49:40;45.50;;;25.97;;
10872;SDS011;34586;53.616;10.032;2023-01-26T03:52:25;45.53;;;27.30;;
10872;SDS011;34586;53.616;10.032;2023-01-26T03:55:09;49.63;;;26.93;;
10872;SDS011;34586;53.616;10.032;2023-01-26T03:57:53;47.07;;;27.30;;
10872;SDS011;34586;53.616;10.032;2023-01-26T04:00:18;45.53;;;24.90;;
10872;SDS011;34586;53.616;10.032;2023-01-26T04:02:45;44.60;;;26.40;;
10872;SDS011;34586;53.616;10.032;2023-01-26T04:05:30;50.63;;;27.40;;
10872;SDS011;34586;53.616;10.032;2023-01-26T04:08:14;48.07;;;26.90;;
10872;SDS011;34586;53.616;10.032;2023-01-26T04:10:46;51.33;;;28.83;;
10872;SDS011;34586;53.616;10.032;2023-01-26T04:13:15;50.17;;;28.13;;
10872;SDS011;34586;53.616;10.032;2023-01-26T04:15:59;45.13;;;26.57;;
10872;SDS011;34586;53.616;10.032;2023-01-26T04:18:43;46.47;;;26.50;;
10872;SDS011;34586;53.616;10.032;2023-01-26T04:21:27;45.57;;;25.37;;
10872;SDS011;34586;53.616;10.032;2023-01-26T04:23:58;48.07;;;25.90;;
10872;SDS011;34586;53.616;10.032;2023-01-26T04:26:28;44.13;;;25.23;;
10872;SDS011;34586;53.616;10.032;2023-01-26T04:28:59;43.17;;;23.93;;
10872;SDS011;34586;53.616;10.032;2023-01-26T04:31:29;47.33;;;25.23;;
10872;SDS011;34586;53.616;10.032;2023-01-26T04:33:55;46.60;;;26.07;;
10872;SDS011;34586;53.616;10.032;2023-01-26T04:36:20;43.80;;;25.30;;
10872;SDS011;34586;53.616;10.032;2023-01-26T04:38:46;46.13;;;24.50;;
10872;SDS011;34586;53.616;10.032;2023-01-26T04:41:13;46.60;;;25.37;;
10872;SDS011;34586;53.616;10.032;2023-01-26T04:43:39;44.13;;;23.97;;
10872;SDS011;34586;53.616;10.032;2023-01-26T04:46:05;40.43;;;22.93;;
10872;SDS011;34586;53.616;10.032;2023-01-26T04:48:32;41.83;;;23.90;;
10872;SDS011;34586;53.616;10.032;2023-01-26T04:50:59;38.73;;;22.47;;
10872;SDS011;34586;53.616;10.032;2023-01-26T04:53:26;40.13;;;23.70;;
10872;SDS011;34586;53.616;10.032;2023-01-26T04:55:52;42.90;;;23.70;;
10872;SDS011;34586;53.616;10.032;2023-01-26T04:58:18;38.17;;;23.27;;
10872;SDS011;34586;53.616;10.032;2023-01-26T05:00:48;38.73;;;22.27;;
10872;SDS011;34586;53.616;10.032;2023-01-26T05:03:18;39.00;;;23.40;;
10872;SDS011;34586;53.616;10.032;2023-01-26T05:05:44;35.00;;;21.87;;
10872;SDS011;34586;53.616;10.032;2023-01-26T05:08:13;35.43;;;21.20;;
10872;SDS011;34586;53.616;10.032;2023-01-26T05:10:39;37.47;;;21.57;;
10872;SDS011;34586;53.616;10.032;2023-01-26T05:13:04;32.87;;;20.77;;
10872;SDS011;34586;53.616;10.032;2023-01-26T05:15:30;31.50;;;19.00;;
10872;SDS011;34586;53.616;10.032;2023-01-26T05:17:59;32.53;;;19.33;;
10872;SDS011;34586;53.616;10.032;2023-01-26T05:20:25;31.00;;;19.17;;
10872;SDS011;34586;53.616;10.032;2023-01-26T05:22:51;29.37;;;18.70;;
10872;SDS011;34586;53.616;10.032;2023-01-26T05:25:17;32.50;;;19.53;;
10872;SDS011;34586;53.616;10.032;2023-01-26T05:27:43;29.37;;;18.73;;
10872;SDS011;34586;53.616;10.032;2023-01-26T05:30:08;29.00;;;17.67;;
10872;SDS011;34586;53.616;10.032;2023-01-26T05:32:35;26.57;;;16.67;;
10872;SDS011;34586;53.616;10.032;2023-01-26T05:35:01;28.67;;;17.60;;
10872;SDS011;34586;53.616;10.032;2023-01-26T05:37:27;28.97;;;18.17;;
10872;SDS011;34586;53.616;10.032;2023-01-26T05:39:53;30.37;;;17.90;;
10872;SDS011;34586;53.616;10.032;2023-01-26T05:42:19;31.17;;;19.07;;
10872;SDS011;34586;53.616;10.032;2023-01-26T05:44:45;27.57;;;17.30;;
10872;SDS011;34586;53.616;10.032;2023-01-26T05:47:10;31.03;;;18.60;;
10872;SDS011;34586;53.616;10.032;2023-01-26T05:49:36;31.80;;;18.93;;
10872;SDS011;34586;53.616;10.032;2023-01-26T05:52:10;31.37;;;19.20;;
10872;SDS011;34586;53.616;10.032;2023-01-26T05:54:38;31.90;;;19.27;;
10872;SDS011;34586;53.616;10.032;2023-01-26T05:57:04;32.17;;;18.87;;
10872;SDS011;34586;53.616;10.032;2023-01-26T05:59:29;33.47;;;20.23;;
10872;SDS011;34586;53.616;10.032;2023-01-26T06:01:55;31.67;;;19.63;;
10872;SDS011;34586;53.616;10.032;2023-01-26T06:04:21;32.53;;;18.43;;
10872;SDS011;34586;53.616;10.032;2023-01-26T06:06:47;31.20;;;19.43;;
10872;SDS011;34586;53.616;10.032;2023-01-26T06:09:13;29.77;;;18.57;;
10872;SDS011;34586;53.616;10.032;2023-01-26T06:11:38;30.83;;;18.20;;
10872;SDS011;34586;53.616;10.032;2023-01-26T06:14:04;31.80;;;19.37;;
10872;SDS011;34586;53.616;10.032;2023-01-26T06:16:29;34.13;;;21.57;;
10872;SDS011;34586;53.616;10.032;2023-01-26T06:18:55;32.73;;;19.73;;
10872;SDS011;34586;53.616;10.032;2023-01-26T06:21:21;31.57;;;19.07;;
10872;SDS011;34586;53.616;10.032;2023-01-26T06:23:46;30.40;;;18.57;;
10872;SDS011;34586;53.616;10.032;2023-01-26T06:26:12;31.17;;;19.13;;
10872;SDS011;34586;53.616;10.032;2023-01-26T06:28:39;31.13;;;19.17;;
10872;SDS011;34586;53.616;10.032;2023-01-26T06:31:05;26.33;;;17.13;;
10872;SDS011;34586;53.616;10.032;2023-01-26T06:33:32;32.07;;;18.83;;
10872;SDS011;34586;53.616;10.032;2023-01-26T06:36:02;29.03;;;17.83;;
10872;SDS011;34586;53.616;10.032;2023-01-26T06:38:36;28.40;;;17.93;;
10872;SDS011;34586;53.616;10.032;2023-01-26T06:41:04;28.63;;;18.37;;
10872;SDS011;34586;53.616;10.032;2023-01-26T06:43:31;28.90;;;17.40;;
10872;SDS011;34586;53.616;10.032;2023-01-26T06:45:58;29.07;;;18.10;;
10872;SDS011;34586;53.616;10.032;2023-01-26T06:48:25;28.77;;;17.80;;
10872;SDS011;34586;53.616;10.032;2023-01-26T06:50:51;32.10;;;17.77;;
10872;SDS011;34586;53.616;10.032;2023-01-26T06:55:58;28.33;;;16.93;;
10872;SDS011;34586;53.616;10.032;2023-01-26T06:58:24;29.00;;;16.73;;
10872;SDS011;34586;53.616;10.032;2023-01-26T07:00:50;26.60;;;17.27;;
10872;SDS011;34586;53.616;10.032;2023-01-26T07:03:16;25.73;;;16.20;;
10872;SDS011;34586;53.616;10.032;2023-01-26T07:05:42;27.57;;;16.63;;
10872;SDS011;34586;53.616;10.032;2023-01-26T07:08:07;25.67;;;16.07;;
10872;SDS011;34586;53.616;10.032;2023-01-26T07:10:34;24.50;;;15.70;;
10872;SDS011;34586;53.616;10.032;2023-01-26T07:13:00;22.57;;;14.83;;
10872;SDS011;34586;53.616;10.032;2023-01-26T07:15:27;24.23;;;15.90;;
10872;SDS011;34586;53.616;10.032;2023-01-26T07:17:52;27.43;;;16.63;;
10872;SDS011;34586;53.616;10.032;2023-01-26T07:20:18;27.67;;;15.97;;
10872;SDS011;34586;53.616;10.032;2023-01-26T07:22:44;26.20;;;16.03;;
10872;SDS011;34586;53.616;10.032;2023-01-26T07:25:09;28.37;;;16.33;;
10872;SDS011;34586;53.616;10.032;2023-01-26T07:27:35;25.07;;;15.50;;
10872;SDS011;34586;53.616;10.032;2023-01-26T07:30:01;25.67;;;15.73;;
10872;SDS011;34586;53.616;10.032;2023-01-26T07:32:26;25.50;;;15.90;;
10872;SDS011;34586;53.616;10.032;2023-01-26T07:34:52;24.73;;;15.93;;
10872;SDS011;34586;53.616;10.032;2023-01-26T07:37:17;29.20;;;16.40;;
10872;SDS011;34586;53.616;10.032;2023-01-26T07:39:43;26.00;;;16.83;;
10872;SDS011;34586;53.616;10.032;2023-01-26T07:42:09;27.53;;;16.67;;
10872;SDS011;34586;53.616;10.032;2023-01-26T07:44:35;25.47;;;16.37;;
10872;SDS011;34586;53.616;10.032;2023-01-26T07:47:00;28.77;;;17.13;;
10872;SDS011;34586;53.616;10.032;2023-01-26T07:49:26;24.70;;;14.70;;
10872;SDS011;34586;53.616;10.032;2023-01-26T07:51:51;27.87;;;16.93;;
10872;SDS011;34586;53.616;10.032;2023-01-26T07:54:18;25.83;;;15.70;;
10872;SDS011;34586;53.616;10.032;2023-01-26T07:56:45;27.80;;;16.60;;
10872;SDS011;34586;53.616;10.032;2023-01-26T07:59:14;25.20;;;16.03;;
10872;SDS011;34586;53.616;10.032;2023-01-26T08:01:40;23.93;;;15.10;;
10872;SDS011;34586;53.616;10.032;2023-01-26T08:04:05;29.50;;;17.23;;
10872;SDS011;34586;53.616;10.032;2023-01-26T08:06:31;25.93;;;15.93;;
10872;SDS011;34586;53.616;10.032;2023-01-26T08:08:57;28.30;;;15.67;;
10872;SDS011;34586;53.616;10.032;2023-01-26T08:11:22;25.77;;;15.73;;
10872;SDS011;34586;53.616;10.032;2023-01-26T08:13:49;26.93;;;15.87;;
10872;SDS011;34586;53.616;10.032;2023-01-26T08:16:15;25.30;;;16.00;;
10872;SDS011;34586;53.616;10.032;2023-01-26T08:18:41;28.97;;;16.57;;
10872;SDS011;34586;53.616;10.032;2023-01-26T08:21:09;26.60;;;16.57;;
10872;SDS011;34586;53.616;10.032;2023-01-26T08:23:36;24.20;;;15.33;;
10872;SDS011;34586;53.616;10.032;2023-01-26T08:26:02;24.63;;;15.43;;
10872;SDS011;34586;53.616;10.032;2023-01-26T08:28:36;24.30;;;15.90;;
10872;SDS011;34586;53.616;10.032;2023-01-26T08:31:09;21.93;;;15.03;;
10872;SDS011;34586;53.616;10.032;2023-01-26T08:33:36;25.73;;;16.10;;
10872;SDS011;34586;53.616;10.032;2023-01-26T08:36:04;25.90;;;15.67;;
10872;SDS011;34586;53.616;10.032;2023-01-26T08:38:32;25.10;;;15.77;;
10872;SDS011;34586;53.616;10.032;2023-01-26T08:40:59;23.80;;;15.30;;
10872;SDS011;34586;53.616;10.032;2023-01-26T08:43:25;23.50;;;14.57;;
10872;SDS011;34586;53.616;10.032;2023-01-26T08:45:50;24.07;;;15.07;;
10872;SDS011;34586;53.616;10.032;2023-01-26T08:48:16;24.40;;;15.50;;
10872;SDS011;34586;53.616;10.032;2023-01-26T08:50:42;28.07;;;16.53;;
10872;SDS011;34586;53.616;10.032;2023-01-26T08:53:08;24.03;;;14.80;;
10872;SDS011;34586;53.616;10.032;2023-01-26T08:55:34;23.80;;;14.97;;
10872;SDS011;34586;53.616;10.032;2023-01-26T08:57:59;22.80;;;14.80;;
10872;SDS011;34586;53.616;10.032;2023-01-26T09:00:25;22.23;;;14.37;;
10872;SDS011;34586;53.616;10.032;2023-01-26T09:02:57;20.30;;;13.93;;
10872;SDS011;34586;53.616;10.032;2023-01-26T09:05:27;23.00;;;13.57;;
10872;SDS011;34586;53.616;10.032;2023-01-26T09:07:56;19.87;;;13.63;;
10872;SDS011;34586;53.616;10.032;2023-01-26T09:10:22;16.87;;;10.90;;
10872;SDS011;34586;53.616;10.032;2023-01-26T09:12:47;16.67;;;11.47;;
10872;SDS011;34586;53.616;10.032;2023-01-26T09:15:13;18.87;;;10.67;;
10872;SDS011;34586;53.616;10.032;2023-01-26T09:17:38;13.57;;;9.37;;
10872;SDS011;34586;53.616;10.032;2023-01-26T09:20:06;13.60;;;9.63;;
10872;SDS011;34586;53.616;10.032;2023-01-26T09:22:33;14.03;;;9.33;;
10872;SDS011;34586;53.616;10.032;2023-01-26T09:24:59;13.80;;;9.07;;
10872;SDS011;34586;53.616;10.032;2023-01-26T09:27:25;12.33;;;8.93;;
10872;SDS011;34586;53.616;10.032;2023-01-26T09:29:51;13.93;;;9.40;;
10872;SDS011;34586;53.616;10.032;2023-01-26T09:32:17;13.97;;;8.63;;
10872;SDS011;34586;53.616;10.032;2023-01-26T09:34:44;14.43;;;9.17;;
10872;SDS011;34586;53.616;10.032;2023-01-26T09:37:09;14.83;;;8.77;;
10872;SDS011;34586;53.616;10.032;2023-01-26T09:39:35;15.37;;;9.80;;
10872;SDS011;34586;53.616;10.032;2023-01-26T09:44:41;13.90;;;9.57;;
10872;SDS011;34586;53.616;10.032;2023-01-26T09:50:09;15.13;;;10.37;;
10872;SDS011;34586;53.616;10.032;2023-01-26T09:52:45;15.53;;;10.13;;
10872;SDS011;34586;53.616;10.032;2023-01-26T09:55:20;17.23;;;9.67;;
10872;SDS011;34586;53.616;10.032;2023-01-26T09:57:48;15.60;;;10.03;;
10872;SDS011;34586;53.616;10.032;2023-01-26T10:05:46;17.80;;;11.60;;
10872;SDS011;34586;53.616;10.032;2023-01-26T10:08:19;20.17;;;11.73;;
10872;SDS011;34586;53.616;10.032;2023-01-26T10:10:48;17.43;;;10.90;;
10872;SDS011;34586;53.616;10.032;2023-01-26T10:13:22;21.10;;;11.23;;
10872;SDS011;34586;53.616;10.032;2023-01-26T10:15:53;18.63;;;11.53;;
10872;SDS011;34586;53.616;10.032;2023-01-26T10:18:30;20.53;;;12.10;;
10872;SDS011;34586;53.616;10.032;2023-01-26T10:21:00;21.30;;;11.90;;
10872;SDS011;34586;53.616;10.032;2023-01-26T10:23:30;17.37;;;11.07;;
10872;SDS011;34586;53.616;10.032;2023-01-26T10:28:42;20.00;;;11.47;;
10872;SDS011;34586;53.616;10.032;2023-01-26T10:31:31;20.93;;;11.17;;
10872;SDS011;34586;53.616;10.032;2023-01-26T10:33:57;22.17;;;12.17;;
10872;SDS011;34586;53.616;10.032;2023-01-26T10:36:26;20.63;;;11.97;;
10872;SDS011;34586;53.616;10.032;2023-01-26T10:38:54;18.33;;;11.80;;
10872;SDS011;34586;53.616;10.032;2023-01-26T10:41:31;21.57;;;11.83;;
10872;SDS011;34586;53.616;10.032;2023-01-26T10:51:37;22.20;;;12.40;;
10872;SDS011;34586;53.616;10.032;2023-01-26T10:54:37;19.27;;;11.73;;
10872;SDS011;34586;53.616;10.032;2023-01-26T10:57:17;20.47;;;11.70;;
10872;SDS011;34586;53.616;10.032;2023-01-26T11:02:25;22.23;;;12.60;;
10872;SDS011;34586;53.616;10.032;2023-01-26T11:10:15;24.03;;;12.53;;
10872;SDS011;34586;53.616;10.032;2023-01-26T11:12:46;26.60;;;13.30;;
10872;SDS011;34586;53.616;10.032;2023-01-26T11:15:19;23.90;;;12.73;;
10872;SDS011;34586;53.616;10.032;2023-01-26T11:17:58;28.70;;;13.73;;
10872;SDS011;34586;53.616;10.032;2023-01-26T11:23:03;27.33;;;14.13;;
10872;SDS011;34586;53.616;10.032;2023-01-26T11:31:10;37.10;;;14.17;;
10872;SDS011;34586;53.616;10.032;2023-01-26T11:36:58;29.57;;;14.77;;
10872;SDS011;34586;53.616;10.032;2023-01-26T11:46:06;31.70;;;14.87;;
10872;SDS011;34586;53.616;10.032;2023-01-26T11:59:37;26.40;;;13.80;;
10872;SDS011;34586;53.616;10.032;2023-01-26T12:04:53;27.67;;;14.77;;
10872;SDS011;34586;53.616;10.032;2023-01-26T12:08:11;27.40;;;13.80;;
10872;SDS011;34586;53.616;10.032;2023-01-26T12:10:28;30.50;;;14.00;;
10872;SDS011;34586;53.616;10.032;2023-01-26T12:13:13;24.37;;;13.27;;
10872;SDS011;34586;53.616;10.032;2023-01-26T12:15:46;30.37;;;14.00;;
10872;SDS011;34586;53.616;10.032;2023-01-26T12:21:02;28.23;;;15.33;;
10872;SDS011;34586;53.616;10.032;2023-01-26T12:23:35;31.07;;;14.73;;
10872;SDS011;34586;53.616;10.032;2023-01-26T12:26:27;33.87;;;14.93;;
10872;SDS011;34586;53.616;10.032;2023-01-26T12:31:27;26.90;;;13.80;;
10872;SDS011;34586;53.616;10.032;2023-01-26T12:34:11;30.10;;;15.00;;
10872;SDS011;34586;53.616;10.032;2023-01-26T12:36:46;25.47;;;13.87;;
10872;SDS011;34586;53.616;10.032;2023-01-26T12:39:28;26.97;;;13.93;;
10872;SDS011;34586;53.616;10.032;2023-01-26T12:44:40;29.90;;;14.73;;
10872;SDS011;34586;53.616;10.032;2023-01-26T12:47:33;29.37;;;14.87;;
10872;SDS011;34586;53.616;10.032;2023-01-26T12:53:00;29.33;;;14.70;;
10872;SDS011;34586;53.616;10.032;2023-01-26T12:55:46;28.53;;;13.93;;
10872;SDS011;34586;53.616;10.032;2023-01-26T12:58:21;30.50;;;14.70;;
10872;SDS011;34586;53.616;10.032;2023-01-26T13:01:01;30.47;;;14.47;;
10872;SDS011;34586;53.616;10.032;2023-01-26T13:03:34;29.93;;;14.90;;
10872;SDS011;34586;53.616;10.032;2023-01-26T13:06:20;32.27;;;14.83;;
10872;SDS011;34586;53.616;10.032;2023-01-26T13:11:41;22.03;;;11.90;;
10872;SDS011;34586;53.616;10.032;2023-01-26T13:22:51;22.07;;;10.50;;
10872;SDS011;34586;53.616;10.032;2023-01-26T13:24:55;18.73;;;10.00;;
10872;SDS011;34586;53.616;10.032;2023-01-26T13:29:56;15.67;;;9.43;;
10872;SDS011;34586;53.616;10.032;2023-01-26T13:34:57;15.50;;;9.33;;
10872;SDS011;34586;53.616;10.032;2023-01-26T13:37:44;13.43;;;8.23;;
10872;SDS011;34586;53.616;10.032;2023-01-26T13:48:58;13.33;;;8.20;;
10872;SDS011;34586;53.616;10.032;2023-01-26T13:54:10;10.93;;;7.27;;
10872;SDS011;34586;53.616;10.032;2023-01-26T13:56:41;15.20;;;8.57;;
10872;SDS011;34586;53.616;10.032;2023-01-26T13:59:24;14.40;;;7.73;;
10872;SDS011;34586;53.616;10.032;2023-01-26T14:01:50;14.93;;;9.00;;
10872;SDS011;34586;53.616;10.032;2023-01-26T14:06:46;13.17;;;8.30;;
10872;SDS011;34586;53.616;10.032;2023-01-26T14:09:25;12.77;;;7.67;;
10872;SDS011;34586;53.616;10.032;2023-01-26T14:11:54;13.43;;;7.80;;
10872;SDS011;34586;53.616;10.032;2023-01-26T14:14:24;12.37;;;7.73;;
10872;SDS011;34586;53.616;10.032;2023-01-26T14:16:51;13.47;;;7.93;;
10872;SDS011;34586;53.616;10.032;2023-01-26T14:19:18;15.47;;;9.40;;
10872;SDS011;34586;53.616;10.032;2023-01-26T14:24:11;12.80;;;6.83;;
10872;SDS011;34586;53.616;10.032;2023-01-26T14:26:37;11.53;;;7.03;;
10872;SDS011;34586;53.616;10.032;2023-01-26T14:29:09;11.50;;;7.27;;
10872;SDS011;34586;53.616;10.032;2023-01-26T14:31:45;16.10;;;10.43;;
10872;SDS011;34586;53.616;10.032;2023-01-26T14:34:13;15.87;;;9.10;;
10872;SDS011;34586;53.616;10.032;2023-01-26T14:36:44;13.27;;;7.47;;
10872;SDS011;34586;53.616;10.032;2023-01-26T14:39:16;17.27;;;11.73;;
10872;SDS011;34586;53.616;10.032;2023-01-26T14:41:46;14.30;;;8.87;;
10872;SDS011;34586;53.616;10.032;2023-01-26T14:44:12;14.07;;;8.23;;
10872;SDS011;34586;53.616;10.032;2023-01-26T14:49:41;13.93;;;8.23;;
10872;SDS011;34586;53.616;10.032;2023-01-26T14:52:23;14.83;;;8.70;;
10872;SDS011;34586;53.616;10.032;2023-01-26T14:54:52;14.07;;;8.40;;
10872;SDS011;34586;53.616;10.032;2023-01-26T14:57:20;16.27;;;10.57;;
10872;SDS011;34586;53.616;10.032;2023-01-26T14:59:49;13.70;;;8.90;;
10872;SDS011;34586;53.616;10.032;2023-01-26T15:02:18;14.23;;;8.67;;
10872;SDS011;34586;53.616;10.032;2023-01-26T15:04:59;14.20;;;8.43;;
10872;SDS011;34586;53.616;10.032;2023-01-26T15:07:47;13.20;;;8.20;;
10872;SDS011;34586;53.616;10.032;2023-01-26T15:13:01;15.70;;;9.03;;
10872;SDS011;34586;53.616;10.032;2023-01-26T15:15:33;16.87;;;9.00;;
10872;SDS011;34586;53.616;10.032;2023-01-26T15:26:06;13.40;;;8.67;;
10872;SDS011;34586;53.616;10.032;2023-01-26T15:28:53;14.27;;;8.20;;
10872;SDS011;34586;53.616;10.032;2023-01-26T15:31:22;15.73;;;8.97;;
10872;SDS011;34586;53.616;10.032;2023-01-26T15:33:54;13.53;;;8.87;;
10872;SDS011;34586;53.616;10.032;2023-01-26T15:36:30;11.97;;;8.07;;
10872;SDS011;34586;53.616;10.032;2023-01-26T15:39:13;14.27;;;8.97;;
10872;SDS011;34586;53.616;10.032;2023-01-26T15:41:39;17.00;;;9.70;;
10872;SDS011;34586;53.616;10.032;2023-01-26T15:44:11;24.87;;;17.83;;
10872;SDS011;34586;53.616;10.032;2023-01-26T15:46:39;18.47;;;10.83;;
10872;SDS011;34586;53.616;10.032;2023-01-26T15:49:05;16.03;;;9.83;;
10872;SDS011;34586;53.616;10.032;2023-01-26T15:51:31;16.77;;;11.27;;
10872;SDS011;34586;53.616;10.032;2023-01-26T15:53:56;21.43;;;11.50;;
10872;SDS011;34586;53.616;10.032;2023-01-26T15:56:22;14.83;;;10.07;;
10872;SDS011;34586;53.616;10.032;2023-01-26T15:58:47;18.03;;;11.90;;
10872;SDS011;34586;53.616;10.032;2023-01-26T16:01:14;15.27;;;11.17;;
10872;SDS011;34586;53.616;10.032;2023-01-26T16:03:42;18.03;;;12.30;;
10872;SDS011;34586;53.616;10.032;2023-01-26T16:06:42;19.87;;;12.23;;
10872;SDS011;34586;53.616;10.032;2023-01-26T16:09:00;18.73;;;11.70;;
10872;SDS011;34586;53.616;10.032;2023-01-26T16:11:30;18.87;;;11.93;;
10872;SDS011;34586;53.616;10.032;2023-01-26T16:14:01;18.17;;;11.50;;
10872;SDS011;34586;53.616;10.032;2023-01-26T16:16:27;21.43;;;13.03;;
10872;SDS011;34586;53.616;10.032;2023-01-26T16:18:53;18.23;;;12.30;;
10872;SDS011;34586;53.616;10.032;2023-01-26T16:21:22;19.90;;;12.47;;
10872;SDS011;34586;53.616;10.032;2023-01-26T16:23:50;21.00;;;12.50;;
10872;SDS011;34586;53.616;10.032;2023-01-26T16:26:16;20.13;;;12.27;;
10872;SDS011;34586;53.616;10.032;2023-01-26T16:28:43;20.67;;;11.97;;